createdAt,value
2018-06-25T00:01:41.105Z,6.57
2018-06-25T00:04:09.487Z,8.17
2018-06-25T00:06:37.884Z,6.35
2018-06-25T00:09:07.797Z,7.87
2018-06-25T00:11:36.171Z,6.83
2018-06-25T00:14:04.819Z,6.83
2018-06-25T00:16:33.289Z,9.23
2018-06-25T00:19:01.399Z,8.13
2018-06-25T00:21:29.843Z,9.23
2018-06-25T00:23:57.923Z,9.75
2018-06-25T00:26:26.296Z,11.75
2018-06-25T00:28:54.710Z,10.70
2018-06-25T00:31:23.137Z,8.33
2018-06-25T00:33:51.536Z,7.13
2018-06-25T00:36:19.888Z,9.30
2018-06-25T00:38:48.274Z,9.37
2018-06-25T00:41:16.627Z,9.75
2018-06-25T00:43:45.138Z,6.80
2018-06-25T00:46:13.414Z,6.30
2018-06-25T00:48:41.838Z,7.30
2018-06-25T00:51:10.563Z,8.35
2018-06-25T00:53:39.052Z,8.15
2018-06-25T00:56:07.490Z,8.93
2018-06-25T00:58:47.381Z,6.97
2018-06-25T01:01:16.144Z,7.50
2018-06-25T01:03:44.655Z,5.97
2018-06-25T01:06:13.355Z,9.10
2018-06-25T01:08:41.440Z,8.03
2018-06-25T01:11:09.853Z,5.83
2018-06-25T01:13:38.198Z,7.03
2018-06-25T01:16:06.591Z,8.53
2018-06-25T01:18:34.992Z,7.43
2018-06-25T01:21:03.433Z,8.40
2018-06-25T01:23:31.839Z,7.50
2018-06-25T01:26:00.214Z,7.65
2018-06-25T01:28:28.572Z,10.93
2018-06-25T01:30:56.963Z,10.93
2018-06-25T01:33:25.343Z,6.27
2018-06-25T01:35:53.772Z,8.18
2018-06-25T01:38:22.213Z,10.05
2018-06-25T01:40:50.641Z,8.38
2018-06-25T01:43:19.033Z,6.65
2018-06-25T01:45:47.702Z,6.83
2018-06-25T01:48:16.113Z,7.97
2018-06-25T01:50:44.497Z,7.85
2018-06-25T01:53:12.874Z,12.18
2018-06-25T01:55:41.268Z,8.28
2018-06-25T01:58:09.665Z,7.60
2018-06-25T02:00:38.021Z,7.25
2018-06-25T02:03:06.744Z,5.62
2018-06-25T02:05:35.174Z,8.30
2018-06-25T02:08:03.573Z,8.23
2018-06-25T02:10:32.084Z,7.78
2018-06-25T02:13:00.482Z,9.03
2018-06-25T02:15:28.901Z,8.23
2018-06-25T02:17:57.320Z,8.08
2018-06-25T02:20:25.695Z,8.68
2018-06-25T02:22:54.100Z,8.23
2018-06-25T02:25:22.484Z,8.95
2018-06-25T02:27:50.574Z,10.75
2018-06-25T02:30:18.968Z,7.33
2018-06-25T02:32:47.339Z,9.15
2018-06-25T02:35:15.696Z,8.38
2018-06-25T02:37:44.080Z,7.40
2018-06-25T02:40:12.603Z,6.95
2018-06-25T02:42:41.028Z,8.93
2018-06-25T02:45:09.123Z,7.45
2018-06-25T02:47:37.523Z,7.00
2018-06-25T02:50:05.989Z,8.58
2018-06-25T02:52:34.406Z,7.62
2018-06-25T02:55:02.834Z,8.68
2018-06-25T02:57:31.229Z,10.47
2018-06-25T02:59:59.780Z,12.88
2018-06-25T03:02:27.861Z,10.82
2018-06-25T03:04:56.272Z,9.45
2018-06-25T03:07:24.759Z,11.70
2018-06-25T03:09:53.189Z,11.63
2018-06-25T03:12:21.561Z,13.23
2018-06-25T03:14:49.949Z,11.07
2018-06-25T03:17:18.325Z,8.58
2018-06-25T03:19:46.720Z,9.45
2018-06-25T03:22:15.156Z,10.15
2018-06-25T03:24:43.511Z,11.43
2018-06-25T03:27:11.935Z,9.00
2018-06-25T03:29:40.304Z,8.93
2018-06-25T03:32:08.700Z,9.70
2018-06-25T03:34:37.047Z,12.63
2018-06-25T03:37:05.487Z,8.88
2018-06-25T03:39:33.870Z,10.88
2018-06-25T03:42:02.321Z,12.20
2018-06-25T03:44:30.708Z,14.23
2018-06-25T03:46:59.101Z,7.07
2018-06-25T03:49:27.456Z,8.53
2018-06-25T03:51:55.557Z,9.68
2018-06-25T03:54:23.936Z,11.65
2018-06-25T03:56:52.475Z,7.95
2018-06-25T03:59:20.891Z,11.12
2018-06-25T04:01:49.277Z,8.30
2018-06-25T04:04:17.702Z,9.60
2018-06-25T04:06:46.083Z,9.48
2018-06-25T04:09:14.473Z,8.55
2018-06-25T04:11:42.934Z,11.80
2018-06-25T04:14:11.320Z,9.50
2018-06-25T04:16:39.715Z,10.65
2018-06-25T04:19:08.064Z,9.03
2018-06-25T04:21:37.484Z,9.13
2018-06-25T04:24:06.117Z,7.67
2018-06-25T04:26:34.673Z,9.03
2018-06-25T04:29:03.314Z,7.20
2018-06-25T04:31:31.688Z,8.98
2018-06-25T04:34:00.331Z,9.20
2018-06-25T04:36:28.877Z,8.73
2018-06-25T04:38:57.277Z,9.97
2018-06-25T04:41:25.680Z,8.10
2018-06-25T04:43:54.073Z,10.20
2018-06-25T04:46:22.456Z,9.35
2018-06-25T04:48:50.886Z,9.25
2018-06-25T04:51:19.281Z,11.97
2018-06-25T04:53:47.684Z,13.80
2018-06-25T04:56:16.075Z,10.47
2018-06-25T04:58:44.459Z,9.85
2018-06-25T05:01:12.844Z,10.68
2018-06-25T05:03:41.224Z,12.43
2018-06-25T05:06:09.637Z,10.90
2018-06-25T05:08:38.030Z,9.68
2018-06-25T05:11:06.122Z,13.27
2018-06-25T05:13:34.510Z,11.90
2018-06-25T05:16:02.950Z,12.57
2018-06-25T05:18:31.328Z,14.60
2018-06-25T05:20:59.454Z,15.80
2018-06-25T05:23:27.844Z,14.00
2018-06-25T05:25:56.239Z,14.45
2018-06-25T05:28:25.111Z,11.08
2018-06-25T05:30:53.499Z,14.30
2018-06-25T05:33:22.018Z,12.07
2018-06-25T05:35:50.440Z,12.78
2018-06-25T05:38:18.842Z,13.38
2018-06-25T05:40:47.258Z,13.68
2018-06-25T05:43:15.672Z,13.58
2018-06-25T05:45:44.095Z,11.53
2018-06-25T05:48:12.489Z,13.68
2018-06-25T05:50:40.869Z,12.07
2018-06-25T05:53:09.302Z,14.18
2018-06-25T05:55:37.712Z,15.32
2018-06-25T05:58:06.133Z,13.35
2018-06-25T06:00:34.514Z,13.80
2018-06-25T06:03:03.280Z,15.60
2018-06-25T06:05:31.646Z,15.72
2018-06-25T06:08:06.884Z,15.32
2018-06-25T06:10:34.981Z,12.95
2018-06-25T06:13:03.403Z,18.17
2018-06-25T06:15:31.761Z,14.68
2018-06-25T06:18:00.145Z,14.75
2018-06-25T06:20:28.549Z,12.30
2018-06-25T06:22:56.935Z,18.63
2018-06-25T06:25:25.281Z,16.80
2018-06-25T06:27:53.709Z,18.55
2018-06-25T06:30:21.836Z,15.40
2018-06-25T06:32:50.249Z,18.80
2018-06-25T06:35:18.600Z,16.95
2018-06-25T06:37:47.035Z,16.65
2018-06-25T06:40:15.453Z,18.73
2018-06-25T06:42:43.873Z,20.17
2018-06-25T06:45:12.272Z,24.17
2018-06-25T06:47:40.657Z,21.77
2018-06-25T06:50:09.053Z,18.85
2018-06-25T06:52:37.476Z,18.20
2018-06-25T06:55:06.073Z,15.23
2018-06-25T06:57:34.561Z,18.62
2018-06-25T07:00:02.998Z,23.50
2018-06-25T07:02:31.394Z,18.17
2018-06-25T07:04:59.840Z,17.57
2018-06-25T07:07:28.236Z,21.33
2018-06-25T07:09:56.658Z,16.50
2018-06-25T07:12:24.738Z,17.12
2018-06-25T07:14:52.866Z,23.45
2018-06-25T07:17:21.360Z,20.95
2018-06-25T07:19:49.759Z,18.80
2018-06-25T07:22:17.851Z,17.77
2018-06-25T07:24:46.223Z,15.63
2018-06-25T07:27:14.340Z,17.55
2018-06-25T07:29:42.725Z,14.93
2018-06-25T07:32:11.161Z,17.23
2018-06-25T07:34:39.529Z,19.27
2018-06-25T07:37:07.632Z,15.77
2018-06-25T07:39:36.009Z,18.75
2018-06-25T07:42:04.415Z,14.98
2018-06-25T07:44:32.819Z,20.40
2018-06-25T07:47:01.205Z,17.97
2018-06-25T07:49:29.773Z,19.40
2018-06-25T07:51:58.394Z,17.60
2018-06-25T07:54:26.813Z,17.35
2018-06-25T07:56:55.179Z,22.02
2018-06-25T07:59:23.552Z,18.93
2018-06-25T08:01:52.078Z,19.70
2018-06-25T08:04:20.495Z,20.68
2018-06-25T08:06:48.907Z,19.87
2018-06-25T08:09:17.308Z,22.60
2018-06-25T08:11:45.753Z,17.87
2018-06-25T08:14:14.228Z,16.10
2018-06-25T08:16:42.812Z,19.60
2018-06-25T08:19:11.135Z,15.20
2018-06-25T08:21:39.539Z,18.60
2018-06-25T08:24:07.959Z,19.67
2018-06-25T08:26:36.360Z,16.75
2018-06-25T08:29:04.877Z,13.25
2018-06-25T08:31:32.960Z,16.42
2018-06-25T08:34:01.058Z,11.97
2018-06-25T08:36:29.469Z,14.87
2018-06-25T08:38:57.813Z,17.17
2018-06-25T08:41:26.274Z,16.57
2018-06-25T08:43:54.621Z,15.45
2018-06-25T08:46:22.988Z,11.90
2018-06-25T08:48:51.390Z,12.53
2018-06-25T08:51:20.044Z,13.50
2018-06-25T08:53:48.465Z,15.15
2018-06-25T08:56:16.549Z,12.75
2018-06-25T08:58:44.964Z,11.28
2018-06-25T09:01:13.732Z,16.32
2018-06-25T09:03:42.175Z,11.73
2018-06-25T09:06:10.690Z,11.25
2018-06-25T09:08:39.103Z,12.50
2018-06-25T09:11:07.530Z,12.07
2018-06-25T09:13:35.991Z,12.20
2018-06-25T09:16:04.103Z,9.43
2018-06-25T09:18:32.517Z,10.78
2018-06-25T09:21:00.892Z,10.98
2018-06-25T09:23:29.314Z,20.72
2018-06-25T09:25:57.712Z,13.98
2018-06-25T09:28:26.134Z,16.45
2018-06-25T09:30:54.722Z,13.75
2018-06-25T09:33:23.127Z,12.90
2018-06-25T09:35:51.517Z,15.60
2018-06-25T09:38:20.020Z,13.97
2018-06-25T09:40:48.564Z,16.52
2018-06-25T09:43:16.957Z,23.22
2018-06-25T09:45:45.090Z,9.20
2018-06-25T09:48:13.495Z,11.65
2018-06-25T09:50:41.886Z,14.25
2018-06-25T09:53:09.958Z,12.28
2018-06-25T09:55:38.079Z,14.93
2018-06-25T09:58:06.494Z,10.40
2018-06-25T10:00:40.216Z,9.28
2018-06-25T10:03:08.325Z,8.37
2018-06-25T10:05:36.699Z,7.78
2018-06-25T10:08:05.160Z,8.73
2018-06-25T10:10:33.591Z,8.58
2018-06-25T10:13:01.996Z,11.33
2018-06-25T10:15:30.163Z,9.20
2018-06-25T10:17:59.016Z,9.78
2018-06-25T10:20:27.641Z,6.55
2018-06-25T10:22:56.047Z,9.00
2018-06-25T10:25:24.444Z,7.35
2018-06-25T10:27:52.829Z,8.35
2018-06-25T10:30:21.256Z,6.92
2018-06-25T10:32:49.652Z,7.58
2018-06-25T10:35:17.779Z,16.05
2018-06-25T10:37:46.226Z,9.20
2018-06-25T10:40:14.672Z,8.38
2018-06-25T10:42:42.812Z,7.35
2018-06-25T10:45:11.246Z,11.50
2018-06-25T10:47:39.668Z,10.23
2018-06-25T10:50:08.320Z,8.10
2018-06-25T10:52:36.698Z,7.33
2018-06-25T10:55:05.161Z,7.45
2018-06-25T10:57:33.590Z,8.18
2018-06-25T11:00:02.240Z,8.38
2018-06-25T11:02:30.103Z,7.17
2018-06-25T11:04:58.609Z,7.97
2018-06-25T11:07:27.300Z,7.22
2018-06-25T11:09:55.498Z,9.88
2018-06-25T11:12:24.010Z,7.15
2018-06-25T11:14:52.396Z,7.10
2018-06-25T11:17:20.838Z,9.18
2018-06-25T11:19:49.242Z,8.95
2018-06-25T11:22:17.376Z,6.05
2018-06-25T11:24:45.770Z,11.25
2018-06-25T11:27:14.268Z,10.35
2018-06-25T11:29:42.600Z,7.78
2018-06-25T11:32:11.007Z,5.75
2018-06-25T11:34:39.532Z,6.55
2018-06-25T11:37:07.895Z,6.53
2018-06-25T11:39:35.975Z,7.58
2018-06-25T11:42:04.037Z,6.28
2018-06-25T11:44:32.151Z,5.80
2018-06-25T11:47:00.552Z,3.58
2018-06-25T11:49:29.120Z,7.37
2018-06-25T11:51:57.556Z,8.00
2018-06-25T11:54:25.938Z,5.87
2018-06-25T11:56:54.356Z,6.40
2018-06-25T11:59:22.733Z,8.70
2018-06-25T12:01:51.358Z,4.35
2018-06-25T12:04:19.631Z,7.72
2018-06-25T12:06:48.020Z,7.47
2018-06-25T12:09:16.116Z,10.33
2018-06-25T12:11:44.550Z,7.35
2018-06-25T12:14:13.092Z,8.88
2018-06-25T12:16:41.492Z,8.20
2018-06-25T12:19:09.969Z,6.90
2018-06-25T12:21:38.312Z,8.90
2018-06-25T12:24:06.733Z,6.75
2018-06-25T12:26:35.144Z,6.30
2018-06-25T12:29:03.564Z,9.00
2018-06-25T12:31:31.952Z,4.25
2018-06-25T12:34:00.301Z,7.50
2018-06-25T12:36:28.712Z,7.12
2018-06-25T12:38:57.142Z,5.17
2018-06-25T12:41:25.570Z,4.92
2018-06-25T12:43:53.936Z,5.20
2018-06-25T12:46:22.433Z,4.58
2018-06-25T12:48:50.852Z,4.70
2018-06-25T12:51:19.247Z,4.55
2018-06-25T12:53:47.375Z,5.70
2018-06-25T12:56:15.723Z,7.08
2018-06-25T12:58:44.101Z,8.05
2018-06-25T13:01:12.472Z,5.90
2018-06-25T13:03:40.895Z,5.75
2018-06-25T13:06:09.326Z,7.70
2018-06-25T13:08:37.707Z,17.07
2018-06-25T13:11:06.220Z,24.77
2018-06-25T13:13:34.628Z,10.45
2018-06-25T13:16:03.075Z,5.97
2018-06-25T13:18:31.474Z,10.95
2018-06-25T13:20:59.865Z,9.30
2018-06-25T13:23:28.262Z,6.90
2018-06-25T13:25:56.759Z,6.00
2018-06-25T13:28:25.144Z,10.58
2018-06-25T13:30:53.569Z,4.15
2018-06-25T13:33:21.980Z,4.83
2018-06-25T13:35:50.111Z,5.87
2018-06-25T13:38:18.637Z,5.25
2018-06-25T13:40:46.970Z,6.67
2018-06-25T13:43:15.395Z,7.20
2018-06-25T13:45:43.897Z,7.53
2018-06-25T13:48:12.281Z,13.15
2018-06-25T13:50:40.756Z,9.60
2018-06-25T13:53:08.869Z,7.70
2018-06-25T13:55:37.266Z,6.83
2018-06-25T13:58:05.910Z,8.10
2018-06-25T14:00:34.372Z,5.85
2018-06-25T14:03:02.784Z,6.40
2018-06-25T14:05:31.191Z,8.78
2018-06-25T14:07:59.584Z,6.45
2018-06-25T14:10:28.055Z,8.10
2018-06-25T14:12:56.465Z,6.60
2018-06-25T14:15:24.567Z,6.12
2018-06-25T14:17:52.930Z,5.58
2018-06-25T14:20:21.090Z,7.78
2018-06-25T14:22:49.522Z,6.85
2018-06-25T14:25:18.232Z,4.92
2018-06-25T14:27:52.213Z,6.90
2018-06-25T14:30:26.043Z,8.20
2018-06-25T14:32:59.803Z,5.60
2018-06-25T14:35:28.180Z,7.97
2018-06-25T14:37:56.573Z,4.42
2018-06-25T14:40:24.998Z,7.60
2018-06-25T14:42:53.320Z,8.08
2018-06-25T14:45:21.730Z,8.08
2018-06-25T14:47:50.159Z,6.83
2018-06-25T14:50:18.521Z,9.43
2018-06-25T14:52:46.927Z,9.45
2018-06-25T14:55:15.315Z,8.75
2018-06-25T14:57:43.727Z,3.60
2018-06-25T15:00:16.336Z,6.50
2018-06-25T15:02:44.755Z,8.83
2018-06-25T15:05:13.162Z,6.45
2018-06-25T15:07:41.525Z,6.80
2018-06-25T15:10:09.924Z,7.60
2018-06-25T15:12:38.335Z,7.25
2018-06-25T15:15:06.805Z,5.37
2018-06-25T15:17:35.214Z,7.40
2018-06-25T15:20:03.707Z,6.37
2018-06-25T15:22:32.066Z,7.90
2018-06-25T15:25:00.147Z,10.13
2018-06-25T15:27:28.613Z,7.35
2018-06-25T15:29:57.175Z,8.98
2018-06-25T15:32:28.764Z,5.00
2018-06-25T15:34:57.156Z,5.17
2018-06-25T15:37:25.637Z,6.73
2018-06-25T15:39:54.035Z,6.90
2018-06-25T15:42:22.413Z,5.40
2018-06-25T15:44:50.799Z,6.17
2018-06-25T15:47:19.196Z,2.20
2018-06-25T15:49:47.546Z,10.28
2018-06-25T15:52:16.056Z,5.17
2018-06-25T15:54:44.433Z,5.08
2018-06-25T15:57:12.870Z,5.35
2018-06-25T15:59:41.267Z,5.70
2018-06-25T16:02:09.748Z,6.80
2018-06-25T16:04:38.150Z,5.00
2018-06-25T16:07:06.546Z,4.60
2018-06-25T16:09:34.959Z,6.40
2018-06-25T16:12:03.413Z,4.40
2018-06-25T16:14:31.534Z,5.62
2018-06-25T16:16:59.905Z,5.22
2018-06-25T16:19:28.301Z,6.85
2018-06-25T16:21:56.672Z,3.33
2018-06-25T16:24:25.058Z,6.37
2018-06-25T16:26:53.516Z,7.23
2018-06-25T16:29:22.047Z,4.10
2018-06-25T16:31:50.467Z,3.57
2018-06-25T16:34:18.863Z,7.03
2018-06-25T16:36:47.293Z,6.20
2018-06-25T16:39:15.694Z,3.00
2018-06-25T16:41:44.155Z,4.78
2018-06-25T16:44:12.552Z,7.25
2018-06-25T16:46:40.959Z,2.37
2018-06-25T16:49:09.322Z,5.17
2018-06-25T16:51:37.713Z,5.00
2018-06-25T16:54:06.094Z,7.03
2018-06-25T16:56:34.516Z,5.33
2018-06-25T16:59:02.894Z,3.77
2018-06-25T17:01:31.303Z,6.90
2018-06-25T17:03:59.742Z,4.85
2018-06-25T17:06:28.153Z,4.37
2018-06-25T17:08:56.570Z,8.00
2018-06-25T17:11:25.017Z,4.30
2018-06-25T17:13:53.439Z,4.62
2018-06-25T17:16:21.958Z,3.77
2018-06-25T17:18:50.382Z,4.72
2018-06-25T17:21:18.745Z,4.10
2018-06-25T17:23:47.148Z,9.40
2018-06-25T17:26:15.514Z,4.58
2018-06-25T17:28:43.947Z,4.80
2018-06-25T17:31:12.348Z,5.50
2018-06-25T17:33:40.753Z,8.23
2018-06-25T17:36:09.104Z,5.00
2018-06-25T17:38:37.207Z,4.22
2018-06-25T17:41:05.605Z,8.73
2018-06-25T17:43:34.024Z,4.23
2018-06-25T17:46:02.459Z,7.30
2018-06-25T17:48:30.861Z,6.03
2018-06-25T17:50:59.224Z,6.93
2018-06-25T17:53:27.678Z,5.13
2018-06-25T17:55:56.199Z,7.35
2018-06-25T17:58:24.597Z,5.40
2018-06-25T18:00:53.077Z,5.10
2018-06-25T18:03:21.475Z,4.45
2018-06-25T18:05:49.568Z,9.28
2018-06-25T18:08:18.941Z,6.27
2018-06-25T18:10:47.436Z,7.90
2018-06-25T18:13:15.852Z,7.78
2018-06-25T18:15:44.248Z,6.40
2018-06-25T18:18:12.610Z,8.38
2018-06-25T18:20:41.044Z,5.72
2018-06-25T18:23:12.155Z,7.83
2018-06-25T18:25:40.551Z,7.03
2018-06-25T18:28:09.034Z,6.67
2018-06-25T18:30:37.398Z,7.22
2018-06-25T18:33:05.829Z,8.10
2018-06-25T18:35:34.216Z,9.40
2018-06-25T18:38:02.597Z,7.30
2018-06-25T18:40:31.034Z,5.33
2018-06-25T18:42:59.507Z,8.08
2018-06-25T18:45:27.915Z,5.00
2018-06-25T18:47:56.305Z,5.00
2018-06-25T18:50:24.702Z,6.03
2018-06-25T18:52:53.102Z,3.50
2018-06-25T18:55:21.483Z,8.43
2018-06-25T18:57:49.907Z,7.25
2018-06-25T19:00:18.660Z,5.80
2018-06-25T19:02:47.159Z,10.10
2018-06-25T19:05:15.239Z,6.37
2018-06-25T19:07:43.669Z,5.40
2018-06-25T19:10:12.021Z,5.50
2018-06-25T19:12:40.671Z,4.27
2018-06-25T19:15:09.062Z,7.08
2018-06-25T19:17:37.483Z,5.03
2018-06-25T19:20:06.367Z,9.65
2018-06-25T19:22:34.919Z,6.50
2018-06-25T19:25:02.969Z,6.33
2018-06-25T19:27:31.351Z,4.87
2018-06-25T19:29:59.732Z,6.73
2018-06-25T19:32:27.820Z,5.60
2018-06-25T19:34:55.922Z,9.58
2018-06-25T19:37:24.326Z,4.60
2018-06-25T19:39:52.720Z,5.12
2018-06-25T19:42:21.164Z,5.03
2018-06-25T19:44:49.668Z,5.92
2018-06-25T19:47:18.085Z,7.50
2018-06-25T19:49:46.165Z,6.60
2018-06-25T19:52:14.311Z,7.12
2018-06-25T19:54:42.733Z,5.05
2018-06-25T19:57:11.475Z,7.08
2018-06-25T19:59:39.905Z,4.50
2018-06-25T20:02:08.416Z,6.10
2018-06-25T20:04:36.832Z,6.35
2018-06-25T20:07:04.942Z,2.75
2018-06-25T20:09:33.394Z,5.33
2018-06-25T20:12:01.501Z,13.30
2018-06-25T20:14:29.940Z,6.45
2018-06-25T20:16:58.075Z,6.50
2018-06-25T20:19:26.523Z,7.42
2018-06-25T20:21:54.955Z,8.57
2018-06-25T20:24:23.399Z,5.77
2018-06-25T20:26:52.028Z,7.63
2018-06-25T20:29:20.414Z,8.78
2018-06-25T20:31:48.563Z,6.00
2018-06-25T20:34:16.971Z,5.60
2018-06-25T20:36:45.446Z,6.80
2018-06-25T20:39:13.851Z,6.70
2018-06-25T20:41:42.516Z,5.90
2018-06-25T20:44:10.963Z,7.08
2018-06-25T20:46:39.515Z,6.90
2018-06-25T20:49:08.025Z,6.07
2018-06-25T20:51:36.484Z,6.08
2018-06-25T20:54:04.967Z,7.72
2018-06-25T20:56:33.372Z,5.40
2018-06-25T20:59:01.787Z,9.10
2018-06-25T21:01:30.230Z,7.83
2018-06-25T21:03:58.638Z,6.90
2018-06-25T21:06:27.057Z,12.20
2018-06-25T21:08:55.194Z,8.03
2018-06-25T21:11:23.609Z,14.77
2018-06-25T21:13:51.752Z,11.35
2018-06-25T21:16:20.201Z,8.83
2018-06-25T21:18:48.635Z,12.28
2018-06-25T21:21:17.075Z,7.72
2018-06-25T21:23:45.476Z,8.30
2018-06-25T21:26:13.849Z,10.60
2018-06-25T21:28:42.307Z,13.22
2018-06-25T21:31:10.743Z,9.20
2018-06-25T21:33:39.135Z,8.63
2018-06-25T21:36:07.595Z,13.73
2018-06-25T21:38:36.101Z,11.60
2018-06-25T21:41:04.497Z,13.15
2018-06-25T21:43:32.909Z,12.20
2018-06-25T21:46:01.356Z,10.93
2018-06-25T21:48:29.737Z,9.13
2018-06-25T21:50:58.138Z,11.43
2018-06-25T21:53:26.573Z,12.43
2018-06-25T21:55:54.999Z,10.03
2018-06-25T21:58:23.417Z,7.80
2018-06-25T22:00:52.923Z,8.50
2018-06-25T22:03:21.324Z,13.05
2018-06-25T22:05:50.273Z,13.15
2018-06-25T22:08:18.747Z,10.15
2018-06-25T22:10:47.176Z,11.95
2018-06-25T22:13:15.592Z,14.33
2018-06-25T22:15:44.019Z,16.33
2018-06-25T22:18:12.125Z,15.17
2018-06-25T22:20:40.564Z,12.70
2018-06-25T22:23:08.925Z,13.97
2018-06-25T22:25:37.336Z,12.53
2018-06-25T22:28:05.795Z,9.13
2018-06-25T22:30:34.192Z,10.40
2018-06-25T22:33:02.568Z,10.80
2018-06-25T22:35:30.938Z,11.97
2018-06-25T22:37:59.041Z,12.40
2018-06-25T22:40:27.433Z,14.80
2018-06-25T22:42:55.903Z,13.32
2018-06-25T22:45:24.385Z,16.00
2018-06-25T22:47:52.860Z,11.90
2018-06-25T22:50:21.294Z,13.30
2018-06-25T22:52:49.804Z,19.12
2018-06-25T22:55:17.899Z,12.30
2018-06-25T22:57:46.318Z,16.15
2018-06-25T23:00:14.772Z,17.27
2018-06-25T23:02:43.220Z,15.60
2018-06-25T23:05:11.633Z,15.63
2018-06-25T23:07:40.077Z,13.38
2018-06-25T23:10:08.443Z,12.55
2018-06-25T23:12:36.553Z,16.82
2018-06-25T23:15:04.961Z,18.07
2018-06-25T23:17:33.404Z,15.63
2018-06-25T23:20:01.789Z,16.50
2018-06-25T23:22:30.196Z,13.83
2018-06-25T23:24:58.686Z,19.60
2018-06-25T23:27:27.098Z,16.97
2018-06-25T23:29:55.473Z,15.43
2018-06-25T23:32:23.563Z,17.10
2018-06-25T23:34:51.981Z,11.55
2018-06-25T23:37:20.424Z,17.82
2018-06-25T23:39:48.879Z,16.45
2018-06-25T23:42:17.283Z,15.43
2018-06-25T23:44:45.669Z,12.60
2018-06-25T23:47:14.060Z,19.70
2018-06-25T23:49:42.495Z,15.03
2018-06-25T23:52:10.875Z,17.45
2018-06-25T23:54:38.932Z,15.13
2018-06-25T23:57:07.398Z,13.25
2018-06-25T23:59:35.814Z,16.40
